Pescara International Airport LIBP

Flugplatz Daten

Name: Pescara International Airport

Ident: LIBP

Lat: 42,43170166

Long: 14,18109989

Platzhöhe: 48 ft

IataCode: PSR

City: Pescara

Homepage: http://www.abruzzo-airport.it/eng/index.php

Metar

2021/08/05 14:20
LIBP 051420Z AUTO 11010KT 080V140 9999 NCD 29/18 Q1007

Taf

2021/08/05 12:21
TAF LIBP 051100Z 0512/0612 12014KT 9999 FEW050 SCT090
BECMG 0518/0520 24005KT
TEMPO 0520/0604 24015KT
BECMG 0608/0610 08013KT
Gewünschte Webcam nicht vorhanden? Dann fügen Sie eine hinzu. Sie wird dann so schnell wie möglich freigeschaltet
Url: Title: